Time;durP1;ratioP1;P1;durP2;ratioP2;P2;SDS_P1;SDS_P2;PMS_P1;PMS_P2;Temp;Humidity;BMP_temperature;BMP_pressure;BME280_temperature;BME280_humidity;BME280_pressure;Samples;Min_cycle;Max_cycle;Signal;HPM_P1;HPM_P2
2023/06/05 00:01:42;;;;;;;7.03;4.20;;;19.60;72.00;;;;;;4998132;28;20113;-69
2023/06/05 00:04:08;;;;;;;6.88;4.60;;;19.60;72.10;;;;;;4997718;28;20107;-69
2023/06/05 00:06:37;;;;;;;7.03;5.28;;;19.60;72.20;;;;;;4998001;28;20467;-69
2023/06/05 00:09:04;;;;;;;6.75;4.97;;;19.60;72.20;;;;;;4998040;28;20019;-68
2023/06/05 00:11:30;;;;;;;8.32;5.68;;;19.60;72.30;;;;;;4997983;28;20037;-69
2023/06/05 00:13:56;;;;;;;7.68;4.82;;;19.60;72.20;;;;;;4997798;28;20460;-69
2023/06/05 00:16:22;;;;;;;7.15;4.60;;;19.60;72.30;;;;;;4997889;28;20400;-69
2023/06/05 00:18:50;;;;;;;6.43;4.28;;;19.70;72.40;;;;;;4997655;28;20026;-69
2023/06/05 00:21:16;;;;;;;9.45;5.53;;;19.60;72.50;;;;;;4997787;28;20113;-69
2023/06/05 00:23:43;;;;;;;7.75;5.32;;;19.60;72.70;;;;;;4997753;28;20045;-69
2023/06/05 00:26:09;;;;;;;10.48;6.65;;;19.60;72.50;;;;;;4997972;28;20034;-69
2023/06/05 00:28:35;;;;;;;11.70;6.38;;;19.60;72.70;;;;;;4997597;28;20026;-69
2023/06/05 00:31:01;;;;;;;11.55;5.07;;;19.60;72.30;;;;;;4997634;28;20432;-69
2023/06/05 00:33:29;;;;;;;6.75;4.28;;;19.60;72.20;;;;;;4997183;28;20328;-69
2023/06/05 00:35:56;;;;;;;4.53;2.70;;;19.40;72.00;;;;;;4996511;28;20428;-69
2023/06/05 00:38:22;;;;;;;6.53;2.60;;;19.40;71.40;;;;;;4997445;28;20027;-69
2023/06/05 00:40:48;;;;;;;5.88;2.83;;;19.00;71.80;;;;;;4997406;28;20042;-69
2023/06/05 00:43:14;;;;;;;6.20;2.60;;;18.80;72.30;;;;;;4997350;28;20027;-69
2023/06/05 00:45:40;;;;;;;4.63;2.40;;;18.70;72.50;;;;;;4997335;28;20030;-69
2023/06/05 00:48:07;;;;;;;2.92;2.30;;;18.60;72.80;;;;;;4997290;28;20029;-69
2023/06/05 00:50:34;;;;;;;4.38;2.50;;;18.50;72.90;;;;;;4997348;28;20049;-69
2023/06/05 00:53:03;;;;;;;5.28;2.72;;;18.50;73.00;;;;;;4997425;28;20035;-69
2023/06/05 00:55:30;;;;;;;3.50;2.75;;;18.40;73.50;;;;;;4997198;28;20379;-69
2023/06/05 00:57:56;;;;;;;3.78;2.63;;;18.40;73.40;;;;;;4997119;28;20061;-69
2023/06/05 01:00:23;;;;;;;4.50;2.60;;;18.30;74.00;;;;;;4996980;28;20030;-69
2023/06/05 01:02:53;;;;;;;3.95;2.83;;;18.20;74.70;;;;;;4996659;28;20038;-69
2023/06/05 01:05:19;;;;;;;5.40;3.10;;;18.10;74.30;;;;;;4996727;28;20088;-69
2023/06/05 01:07:48;;;;;;;5.70;2.90;;;18.00;74.80;;;;;;4996869;28;20030;-69
2023/06/05 01:10:14;;;;;;;5.97;2.90;;;18.00;75.10;;;;;;4996988;28;20034;-69
2023/06/05 01:13:17;;;;;;;4.32;3.10;;;17.90;74.90;;;;;;4996945;28;20076;-69
2023/06/05 01:15:44;;;;;;;6.75;3.60;;;17.90;75.70;;;;;;4996810;28;20459;-69
2023/06/05 01:18:10;;;;;;;5.63;3.33;;;17.80;75.60;;;;;;4996669;28;20040;-69
2023/06/05 01:20:39;;;;;;;4.82;3.25;;;17.80;75.60;;;;;;4996671;28;20109;-69
2023/06/05 01:23:08;;;;;;;6.35;3.58;;;17.80;75.30;;;;;;4996531;28;20467;-69
2023/06/05 01:25:40;;;;;;;4.25;3.00;;;17.70;75.70;;;;;;4996634;28;20105;-69
2023/06/05 01:28:25;;;;;;;4.97;2.80;;;17.70;76.00;;;;;;4996507;28;20037;-69
2023/06/05 01:31:16;;;;;;;4.93;2.50;;;17.70;75.90;;;;;;4996285;28;20026;-69
2023/06/05 01:33:50;;;;;;;5.53;3.30;;;17.60;76.40;;;;;;4996524;28;20026;-69
2023/06/05 01:36:16;;;;;;;5.68;2.88;;;17.60;75.90;;;;;;4996459;28;20049;-69
2023/06/05 01:38:45;;;;;;;6.47;3.05;;;17.60;76.10;;;;;;4996340;28;20045;-69
2023/06/05 01:41:12;;;;;;;4.13;2.65;;;17.60;76.00;;;;;;4995791;28;20019;-69
2023/06/05 01:43:39;;;;;;;4.05;2.70;;;17.50;76.20;;;;;;4996146;28;20332;-69
2023/06/05 01:46:07;;;;;;;4.38;2.50;;;17.50;76.30;;;;;;4995940;28;20022;-69
2023/06/05 01:48:35;;;;;;;5.18;2.75;;;17.40;76.00;;;;;;4996126;28;20030;-69
2023/06/05 01:51:01;;;;;;;5.55;2.95;;;17.40;76.10;;;;;;4996135;28;20018;-69
2023/06/05 01:53:28;;;;;;;5.35;2.83;;;17.40;76.80;;;;;;4996003;28;20440;-69
2023/06/05 01:55:57;;;;;;;3.67;2.20;;;17.30;76.50;;;;;;4996071;28;20447;-68
2023/06/05 01:58:24;;;;;;;4.50;2.55;;;17.20;77.00;;;;;;4995956;28;20034;-69
2023/06/05 02:00:52;;;;;;;3.00;2.03;;;17.20;76.80;;;;;;4995899;28;20023;-68
2023/06/05 02:03:20;;;;;;;4.25;2.50;;;17.20;77.40;;;;;;4995690;28;20042;-69
2023/06/05 02:05:46;;;;;;;3.83;2.60;;;17.10;77.30;;;;;;4996014;28;20050;-69
2023/06/05 02:08:19;;;;;;;4.63;2.42;;;17.10;77.80;;;;;;4995804;28;20019;-69
2023/06/05 02:10:52;;;;;;;3.00;2.20;;;17.10;78.80;;;;;;4995883;28;20035;-69
2023/06/05 02:13:19;;;;;;;4.78;2.22;;;17.00;78.20;;;;;;4995738;28;20494;-69
2023/06/05 02:15:46;;;;;;;3.22;2.30;;;17.00;77.60;;;;;;4995526;28;20356;-69
2023/06/05 02:18:13;;;;;;;2.97;2.15;;;17.00;77.50;;;;;;4995660;28;20034;-69
2023/06/05 02:20:41;;;;;;;2.85;1.70;;;17.00;77.20;;;;;;4995594;28;20061;-68
2023/06/05 02:23:08;;;;;;;3.58;1.92;;;17.00;77.40;;;;;;4995559;28;20034;-69
2023/06/05 02:25:34;;;;;;;2.50;2.00;;;17.10;77.30;;;;;;4995583;28;20045;-69
2023/06/05 02:28:00;;;;;;;3.00;1.80;;;17.10;77.00;;;;;;4995542;28;20096;-69
2023/06/05 02:30:26;;;;;;;2.80;1.90;;;17.20;76.80;;;;;;4995260;28;20034;-69
2023/06/05 02:32:56;;;;;;;3.08;1.73;;;17.20;76.90;;;;;;4995680;28;20030;-69
2023/06/05 02:35:23;;;;;;;3.65;1.60;;;17.20;76.70;;;;;;4995401;28;20030;-69
2023/06/05 02:37:49;;;;;;;2.38;1.55;;;17.20;76.60;;;;;;4994520;28;20356;-69
2023/06/05 02:40:15;;;;;;;2.55;1.75;;;17.20;76.50;;;;;;4995691;28;20034;-69
2023/06/05 02:42:41;;;;;;;3.28;1.90;;;17.30;76.60;;;;;;4995382;28;20354;-69
2023/06/05 02:45:08;;;;;;;3.60;2.00;;;17.30;76.60;;;;;;4995155;28;20018;-69
2023/06/05 02:47:34;;;;;;;3.60;1.83;;;17.30;76.40;;;;;;4995323;28;20046;-68
2023/06/05 02:50:02;;;;;;;2.10;1.58;;;17.30;76.60;;;;;;4995586;28;20022;-69
2023/06/05 02:52:28;;;;;;;3.97;1.90;;;17.30;76.70;;;;;;4997657;28;20026;-69
2023/06/05 02:54:54;;;;;;;5.78;1.98;;;17.30;76.60;;;;;;4999280;28;20161;-69
2023/06/05 02:57:20;;;;;;;7.00;2.10;;;17.30;76.80;;;;;;4999495;28;20383;-68
2023/06/05 02:59:46;;;;;;;3.70;1.85;;;17.30;76.70;;;;;;4999122;28;20022;-69
2023/06/05 03:02:12;;;;;;;3.00;1.75;;;17.30;76.90;;;;;;4999253;28;20113;-69
2023/06/05 03:04:42;;;;;;;3.33;2.30;;;17.20;76.80;;;;;;4998913;28;20122;-69
2023/06/05 03:07:09;;;;;;;3.70;2.03;;;17.20;76.70;;;;;;4999198;28;20034;-68
2023/06/05 03:09:36;;;;;;;2.60;1.85;;;17.20;76.90;;;;;;4999453;28;20031;-68
2023/06/05 03:12:02;;;;;;;4.60;2.53;;;17.20;76.90;;;;;;4999326;28;20038;-69
2023/06/05 03:14:30;;;;;;;4.03;2.33;;;17.20;76.80;;;;;;4998651;28;20087;-69
2023/06/05 03:16:58;;;;;;;2.55;1.90;;;17.20;77.00;;;;;;4998962;28;20109;-69
2023/06/05 03:19:25;;;;;;;2.33;1.80;;;17.20;77.30;;;;;;4999234;28;20026;-68
2023/06/05 03:21:51;;;;;;;3.85;1.92;;;17.20;77.00;;;;;;4998950;28;20113;-69
2023/06/05 03:24:17;;;;;;;3.00;1.60;;;17.20;77.10;;;;;;4998823;28;20054;-69
2023/06/05 03:26:43;;;;;;;3.20;1.65;;;17.20;76.80;;;;;;4998577;28;20037;-68
2023/06/05 03:29:11;;;;;;;3.10;2.15;;;17.20;76.90;;;;;;4998781;28;20101;-68
2023/06/05 03:31:37;;;;;;;1.77;1.60;;;17.20;77.00;;;;;;4998727;28;20452;-68
2023/06/05 03:34:03;;;;;;;3.17;1.60;;;17.20;77.20;;;;;;4998707;28;20056;-68
2023/06/05 03:36:33;;;;;;;4.40;2.05;;;17.20;77.30;;;;;;4998630;28;20083;-68
2023/06/05 03:38:59;;;;;;;2.38;1.80;;;17.20;77.50;;;;;;4998577;28;20112;-69
2023/06/05 03:41:26;;;;;;;4.40;1.70;;;17.20;77.40;;;;;;4997321;28;20055;-68
2023/06/05 03:43:53;;;;;;;2.88;1.50;;;17.30;77.50;;;;;;4998410;28;20026;-68
2023/06/05 03:46:19;;;;;;;2.80;1.88;;;17.30;77.20;;;;;;4998584;28;20041;-69
2023/06/05 03:48:46;;;;;;;2.83;1.77;;;17.30;77.20;;;;;;4998454;28;20026;-68
2023/06/05 03:51:13;;;;;;;3.35;1.70;;;17.30;77.20;;;;;;4998402;28;20031;-68
2023/06/05 03:53:39;;;;;;;1.42;1.33;;;17.40;77.00;;;;;;4998305;28;20026;-68
2023/06/05 03:56:08;;;;;;;2.13;1.60;;;17.40;77.10;;;;;;4998190;28;20026;-68
2023/06/05 03:58:35;;;;;;;2.65;1.60;;;17.40;77.10;;;;;;5001145;28;20030;-68
2023/06/05 04:01:01;;;;;;;2.13;1.63;;;17.40;77.00;;;;;;5000492;28;20030;-68
2023/06/05 04:03:27;;;;;;;3.22;1.63;;;17.40;77.00;;;;;;5000290;28;20048;-67
2023/06/05 04:05:53;;;;;;;2.17;1.77;;;17.40;77.00;;;;;;5000864;28;20049;-67
2023/06/05 04:08:19;;;;;;;3.22;1.55;;;17.30;77.10;;;;;;5001290;28;20026;-68
2023/06/05 04:10:45;;;;;;;2.25;1.65;;;17.40;77.20;;;;;;4998090;28;20018;-68
2023/06/05 04:13:11;;;;;;;3.20;1.42;;;17.40;77.40;;;;;;4998160;28;20026;-69
2023/06/05 04:15:37;;;;;;;2.08;1.80;;;17.40;77.40;;;;;;4997984;28;20045;-68
2023/06/05 04:18:03;;;;;;;2.70;1.63;;;17.40;77.40;;;;;;4997940;28;20100;-69
2023/06/05 04:20:29;;;;;;;3.92;1.98;;;17.40;77.40;;;;;;4997884;28;20066;-69
2023/06/05 04:22:55;;;;;;;3.97;2.00;;;17.40;77.50;;;;;;4997916;28;20031;-69
2023/06/05 04:25:21;;;;;;;3.38;2.03;;;17.40;77.40;;;;;;4997702;28;20022;-68
2023/06/05 04:27:50;;;;;;;2.17;1.70;;;17.40;77.40;;;;;;4997697;28;20499;-69
2023/06/05 04:30:16;;;;;;;3.83;1.80;;;17.40;77.30;;;;;;4997687;28;20049;-69
2023/06/05 04:32:42;;;;;;;3.28;1.70;;;17.50;77.40;;;;;;4997607;28;20098;-69
2023/06/05 04:35:09;;;;;;;2.97;2.15;;;17.50;77.20;;;;;;4997588;28;20026;-69
2023/06/05 04:37:36;;;;;;;2.67;2.00;;;17.50;77.20;;;;;;4997601;28;20045;-69
2023/06/05 04:40:05;;;;;;;2.72;1.83;;;17.50;77.30;;;;;;4997136;28;20113;-68
2023/06/05 04:42:36;;;;;;;3.05;1.90;;;17.50;77.40;;;;;;4997352;28;20101;-69
2023/06/05 04:45:07;;;;;;;3.65;2.10;;;17.50;77.40;;;;;;4997690;28;20019;-68
2023/06/05 04:47:34;;;;;;;3.38;2.35;;;17.50;77.30;;;;;;4997347;28;20440;-68
2023/06/05 04:50:05;;;;;;;3.38;2.40;;;17.50;77.30;;;;;;4997598;28;20027;-68
2023/06/05 04:52:32;;;;;;;2.85;2.10;;;17.50;77.50;;;;;;4997599;28;20045;-69
2023/06/05 04:55:01;;;;;;;2.65;2.30;;;17.40;77.50;;;;;;4996958;28;20022;-68
2023/06/05 04:57:27;;;;;;;3.15;2.00;;;17.50;77.60;;;;;;4996225;28;20026;-69
2023/06/05 04:59:54;;;;;;;3.25;2.08;;;17.50;77.70;;;;;;4997162;28;20018;-68
2023/06/05 05:02:21;;;;;;;2.20;1.92;;;17.50;77.70;;;;;;4997022;28;20089;-68
2023/06/05 05:04:47;;;;;;;3.00;2.08;;;17.50;77.70;;;;;;4996855;28;20042;-68
2023/06/05 05:07:16;;;;;;;3.00;2.25;;;17.60;77.70;;;;;;4996906;28;20038;-68
2023/06/05 05:09:43;;;;;;;2.80;2.28;;;17.60;77.80;;;;;;4996737;28;20119;-68
2023/06/05 05:12:09;;;;;;;2.30;2.08;;;17.60;77.80;;;;;;4995919;28;20037;-68
2023/06/05 05:14:36;;;;;;;4.57;2.40;;;17.60;77.70;;;;;;4995900;28;20019;-68
2023/06/05 05:17:03;;;;;;;3.28;2.20;;;17.70;77.90;;;;;;4996855;28;20031;-68
2023/06/05 05:19:29;;;;;;;2.80;2.25;;;17.70;77.70;;;;;;4997039;28;20026;-68
2023/06/05 05:21:55;;;;;;;4.25;2.20;;;17.70;77.80;;;;;;4996672;28;20031;-68
2023/06/05 05:24:23;;;;;;;4.25;2.28;;;17.70;77.80;;;;;;4996321;28;20432;-68
2023/06/05 05:26:50;;;;;;;3.10;2.20;;;17.70;77.70;;;;;;4996536;28;20080;-68
2023/06/05 05:29:16;;;;;;;4.22;2.35;;;17.80;77.80;;;;;;4996564;28;20018;-67
2023/06/05 05:31:43;;;;;;;3.90;2.30;;;17.80;77.90;;;;;;4996538;28;20161;-68
2023/06/05 05:34:09;;;;;;;3.70;2.47;;;17.80;77.90;;;;;;4996683;28;20038;-68
2023/06/05 05:36:36;;;;;;;2.63;1.92;;;17.90;77.90;;;;;;4995536;28;20030;-68
2023/06/05 05:39:03;;;;;;;4.63;2.72;;;17.90;77.90;;;;;;4996385;28;20030;-68
2023/06/05 05:41:29;;;;;;;3.00;2.20;;;17.90;77.70;;;;;;4995349;28;20456;-68
2023/06/05 05:43:55;;;;;;;4.55;2.60;;;17.90;77.70;;;;;;4996177;28;20440;-68
2023/06/05 05:46:21;;;;;;;7.82;2.50;;;18.00;77.70;;;;;;4996250;28;20043;-68
2023/06/05 05:48:47;;;;;;;4.90;2.75;;;18.00;77.60;;;;;;4996125;28;20093;-68
2023/06/05 05:51:13;;;;;;;3.85;2.63;;;18.00;77.50;;;;;;4996186;28;20483;-68
2023/06/05 05:53:39;;;;;;;3.97;2.28;;;18.00;77.90;;;;;;4995825;28;20117;-68
2023/06/05 05:56:05;;;;;;;3.72;2.45;;;17.90;77.60;;;;;;4995115;28;20392;-68
2023/06/05 05:58:31;;;;;;;5.03;2.47;;;17.90;77.90;;;;;;4996101;28;20105;-68
2023/06/05 06:00:59;;;;;;;4.72;3.08;;;17.90;77.50;;;;;;4995913;28;20030;-68
2023/06/05 06:03:26;;;;;;;5.10;3.25;;;17.90;77.40;;;;;;4995844;28;20064;-68
2023/06/05 06:05:53;;;;;;;4.60;3.13;;;17.90;77.50;;;;;;4995947;28;20026;-68
2023/06/05 06:08:20;;;;;;;6.45;3.63;;;17.80;77.50;;;;;;4995585;28;20110;-67
2023/06/05 06:10:45;;;;;;;4.85;3.38;;;17.70;77.70;;;;;;4995792;28;20031;-67
2023/06/05 06:13:12;;;;;;;5.22;3.20;;;17.70;77.80;;;;;;4995693;28;20053;-67
2023/06/05 06:15:38;;;;;;;7.72;3.88;;;17.70;78.10;;;;;;4995772;28;20034;-67
2023/06/05 06:18:05;;;;;;;4.78;3.22;;;17.70;78.00;;;;;;4995686;28;20034;-67
2023/06/05 06:20:33;;;;;;;5.68;3.17;;;17.70;78.00;;;;;;4995707;28;20037;-67
2023/06/05 06:22:59;;;;;;;7.40;3.70;;;17.70;77.90;;;;;;4995624;28;20101;-68
2023/06/05 06:25:31;;;;;;;4.00;2.75;;;17.70;78.00;;;;;;4995495;28;20049;-67
2023/06/05 06:28:01;;;;;;;7.00;3.80;;;17.70;78.10;;;;;;4995589;28;20367;-68
2023/06/05 06:30:27;;;;;;;5.35;3.38;;;17.70;77.80;;;;;;4995626;28;20344;-68
2023/06/05 06:32:57;;;;;;;6.63;3.97;;;17.70;77.90;;;;;;4995490;28;20141;-67
2023/06/05 06:35:24;;;;;;;7.13;3.92;;;17.80;77.90;;;;;;4995138;28;20459;-68
2023/06/05 06:37:54;;;;;;;6.90;3.88;;;17.80;77.80;;;;;;4995472;28;20321;-68
2023/06/05 06:40:20;;;;;;;4.80;3.20;;;17.90;77.80;;;;;;4995254;28;20077;-67
2023/06/05 06:42:46;;;;;;;5.22;3.20;;;17.90;77.90;;;;;;4995357;28;20022;-68
2023/06/05 06:45:12;;;;;;;7.07;3.78;;;17.90;77.80;;;;;;4995438;28;20402;-68
2023/06/05 06:47:38;;;;;;;5.95;3.75;;;17.90;77.80;;;;;;4994345;28;20041;-69
2023/06/05 06:50:05;;;;;;;5.20;3.55;;;17.90;77.70;;;;;;4995080;28;20023;-68
2023/06/05 06:52:31;;;;;;;9.07;4.25;;;17.90;77.80;;;;;;4995304;28;20120;-68
2023/06/05 06:54:56;;;;;;;5.05;3.10;;;18.00;77.80;;;;;;4995438;28;20051;-68
2023/06/05 06:57:22;;;;;;;8.27;4.03;;;18.00;77.70;;;;;;4995274;28;20164;-68
2023/06/05 06:59:49;;;;;;;4.47;3.00;;;18.00;77.60;;;;;;4995203;28;20018;-68
2023/06/05 07:02:16;;;;;;;5.75;2.95;;;18.10;77.50;;;;;;4995186;28;20356;-69
2023/06/05 07:04:43;;;;;;;5.63;2.92;;;18.00;77.50;;;;;;4994789;28;20042;-68
2023/06/05 07:07:11;;;;;;;5.00;3.13;;;18.10;77.50;;;;;;4995448;28;20049;-68
2023/06/05 07:09:37;;;;;;;5.20;3.28;;;18.00;77.40;;;;;;4995265;28;20015;-68
2023/06/05 07:12:05;;;;;;;6.95;3.08;;;18.10;77.50;;;;;;4995225;28;20054;-68
2023/06/05 07:14:33;;;;;;;4.53;3.30;;;18.10;77.30;;;;;;4995066;28;20023;-68
2023/06/05 07:17:00;;;;;;;5.57;3.42;;;18.10;77.40;;;;;;4995377;28;20030;-68
2023/06/05 07:19:29;;;;;;;6.70;3.25;;;18.20;77.60;;;;;;4994799;28;20029;-68
2023/06/05 07:22:00;;;;;;;4.20;2.88;;;18.20;77.40;;;;;;4994001;28;20047;-68
2023/06/05 07:24:27;;;;;;;4.28;2.83;;;18.20;77.10;;;;;;4994956;28;20073;-68
2023/06/05 07:26:55;;;;;;;4.95;3.10;;;18.30;77.20;;;;;;4994998;28;20035;-68
2023/06/05 07:29:24;;;;;;;6.68;3.40;;;18.40;77.10;;;;;;4994915;28;20037;-68
2023/06/05 07:31:52;;;;;;;5.85;3.45;;;18.40;77.20;;;;;;4995043;28;20053;-68
2023/06/05 07:34:18;;;;;;;5.32;3.00;;;18.50;77.00;;;;;;4994582;28;20110;-68
2023/06/05 07:36:46;;;;;;;5.15;2.95;;;18.60;77.00;;;;;;4994923;28;20101;-68
2023/06/05 07:39:13;;;;;;;3.95;2.70;;;18.80;76.80;;;;;;4997867;28;20030;-68
2023/06/05 07:41:42;;;;;;;2.72;2.30;;;18.90;76.60;;;;;;4998565;28;20035;-68
2023/06/05 07:44:10;;;;;;;8.60;3.00;;;18.90;76.40;;;;;;4998447;28;20018;-68
2023/06/05 07:46:37;;;;;;;4.13;2.70;;;19.00;76.30;;;;;;4998517;28;20026;-68
2023/06/05 07:49:03;;;;;;;4.22;3.10;;;19.00;76.10;;;;;;4998484;28;20018;-68
2023/06/05 07:51:29;;;;;;;4.57;2.65;;;19.10;76.00;;;;;;4998417;28;20030;-68
2023/06/05 07:53:56;;;;;;;5.03;3.22;;;19.10;75.70;;;;;;4998240;28;20042;-68
2023/06/05 07:56:25;;;;;;;5.15;2.85;;;19.20;75.80;;;;;;4998296;28;20037;-68
2023/06/05 07:58:51;;;;;;;4.28;2.90;;;19.30;75.70;;;;;;4998036;28;20034;-68
2023/06/05 08:01:17;;;;;;;2.95;2.15;;;19.40;75.50;;;;;;4998133;28;20030;-69
2023/06/05 08:03:43;;;;;;;3.65;2.17;;;19.40;74.90;;;;;;4997626;28;20042;-69
2023/06/05 08:06:10;;;;;;;5.97;2.90;;;19.50;74.80;;;;;;4998391;28;20045;-68
2023/06/05 08:08:36;;;;;;;3.75;2.38;;;19.70;74.70;;;;;;4998158;28;20352;-68
2023/06/05 08:11:02;;;;;;;2.92;2.28;;;19.80;74.50;;;;;;4998270;28;20109;-69
2023/06/05 08:13:29;;;;;;;3.90;2.55;;;19.90;74.20;;;;;;4997954;28;20210;-69
2023/06/05 08:15:56;;;;;;;5.95;2.92;;;19.90;73.80;;;;;;4999316;28;20467;-69
2023/06/05 08:18:21;;;;;;;3.58;2.53;;;19.90;73.70;;;;;;5000230;28;20054;-69
2023/06/05 08:20:47;;;;;;;4.10;2.85;;;20.00;73.70;;;;;;5000051;28;20073;-68
2023/06/05 08:23:14;;;;;;;5.15;2.70;;;20.00;73.70;;;;;;4998873;28;20019;-69
2023/06/05 08:25:41;;;;;;;4.57;3.10;;;20.10;73.60;;;;;;4997778;28;20549;-69
2023/06/05 08:28:07;;;;;;;5.13;3.03;;;20.10;73.60;;;;;;4997878;28;20412;-69
2023/06/05 08:30:33;;;;;;;4.28;2.80;;;20.20;73.50;;;;;;4997653;28;20105;-69
2023/06/05 08:32:58;;;;;;;5.65;3.20;;;20.20;73.30;;;;;;4997421;28;20118;-68
2023/06/05 08:35:25;;;;;;;4.28;2.97;;;20.20;73.20;;;;;;4997587;28;20038;-68
2023/06/05 08:37:51;;;;;;;5.97;3.67;;;20.30;73.20;;;;;;4997777;28;20053;-68
2023/06/05 08:40:18;;;;;;;4.63;3.10;;;20.40;73.20;;;;;;4997461;28;20085;-69
2023/06/05 08:42:45;;;;;;;5.40;3.58;;;20.40;72.70;;;;;;4997335;28;20032;-69
2023/06/05 08:45:11;;;;;;;5.35;3.55;;;20.40;72.20;;;;;;4997307;28;20072;-69
2023/06/05 08:47:38;;;;;;;4.90;3.40;;;20.40;72.30;;;;;;4997372;28;20033;-69
2023/06/05 08:50:08;;;;;;;5.38;3.03;;;20.40;72.40;;;;;;4996351;28;20061;-68
2023/06/05 08:52:38;;;;;;;7.28;3.35;;;20.50;72.20;;;;;;4997413;28;20308;-68
2023/06/05 08:55:07;;;;;;;4.72;3.00;;;20.50;72.00;;;;;;4997212;28;20034;-68
2023/06/05 08:57:39;;;;;;;5.20;3.35;;;20.50;71.90;;;;;;4997099;28;20037;-68
2023/06/05 09:00:14;;;;;;;5.60;3.05;;;20.50;71.70;;;;;;4997054;28;20053;-69
2023/06/05 09:02:46;;;;;;;4.45;3.13;;;20.70;71.50;;;;;;4997037;28;20026;-69
2023/06/05 09:05:16;;;;;;;7.28;3.20;;;20.70;71.30;;;;;;4996886;28;20100;-69
2023/06/05 09:07:42;;;;;;;5.00;3.17;;;20.80;71.20;;;;;;4997037;28;20030;-69
2023/06/05 09:10:23;;;;;;;4.78;3.20;;;20.90;71.20;;;;;;4996931;28;20025;-69
2023/06/05 09:12:58;;;;;;;5.95;3.38;;;20.90;71.10;;;;;;4997017;28;20053;-68
2023/06/05 09:15:29;;;;;;;5.53;3.30;;;20.90;70.60;;;;;;4996787;28;20096;-68
2023/06/05 09:18:12;;;;;;;6.22;3.40;;;20.90;70.60;;;;;;4996791;28;20161;-68
2023/06/05 09:20:41;;;;;;;5.60;3.42;;;20.90;70.70;;;;;;4996734;28;20027;-68
2023/06/05 09:23:26;;;;;;;5.18;3.22;;;20.90;70.80;;;;;;4996578;28;20034;-67
2023/06/05 09:25:53;;;;;;;5.03;3.10;;;20.90;70.10;;;;;;4996900;28;20065;-68
2023/06/05 09:28:19;;;;;;;4.20;3.05;;;21.00;70.30;;;;;;4996806;28;20050;-68
2023/06/05 09:31:02;;;;;;;4.78;2.92;;;21.10;70.10;;;;;;4996254;28;20359;-68
2023/06/05 09:33:30;;;;;;;6.97;3.07;;;21.20;69.90;;;;;;4996700;28;20058;-67
2023/06/05 09:36:11;;;;;;;9.88;3.05;;;21.30;69.40;;;;;;4996672;28;20698;-68
2023/06/05 09:38:39;;;;;;;7.35;3.42;;;21.40;69.50;;;;;;4996455;28;20456;-68
2023/06/05 09:41:06;;;;;;;4.65;3.17;;;21.40;69.50;;;;;;4996276;28;20062;-68
2023/06/05 09:43:33;;;;;;;3.92;2.92;;;21.40;69.30;;;;;;4996221;28;20548;-68
2023/06/05 09:46:11;;;;;;;3.35;2.55;;;21.40;69.10;;;;;;4996056;28;20061;-69
2023/06/05 09:48:37;;;;;;;4.97;2.90;;;21.50;68.60;;;;;;4996218;28;20063;-67
2023/06/05 09:51:16;;;;;;;3.03;2.60;;;21.50;68.40;;;;;;4996160;28;20026;-67
2023/06/05 09:53:46;;;;;;;3.90;2.78;;;21.50;68.10;;;;;;4996130;28;20034;-67
2023/06/05 09:56:14;;;;;;;5.72;3.50;;;21.50;67.90;;;;;;4996117;28;20027;-68
2023/06/05 09:58:45;;;;;;;5.53;2.80;;;21.50;67.60;;;;;;4995843;28;20443;-68
2023/06/05 10:01:19;;;;;;;4.95;3.00;;;21.50;68.00;;;;;;4995548;28;20044;-68
2023/06/05 10:03:58;;;;;;;3.75;2.80;;;21.50;67.80;;;;;;4995860;28;20047;-67
2023/06/05 10:06:28;;;;;;;4.07;2.78;;;21.50;68.00;;;;;;4996072;28;20022;-68
2023/06/05 10:08:57;;;;;;;3.92;2.55;;;21.60;68.00;;;;;;4996153;28;20110;-68
2023/06/05 10:11:28;;;;;;;5.88;3.05;;;21.70;67.90;;;;;;4995886;28;20026;-68
2023/06/05 10:13:59;;;;;;;4.63;2.70;;;21.80;67.80;;;;;;4995604;28;20050;-68
2023/06/05 10:16:28;;;;;;;3.97;2.97;;;21.80;67.40;;;;;;4996042;28;20045;-68
2023/06/05 10:18:59;;;;;;;5.82;3.10;;;21.90;67.50;;;;;;4995718;28;20023;-68
2023/06/05 10:21:25;;;;;;;4.35;2.70;;;21.90;67.30;;;;;;4995717;28;20031;-67
2023/06/05 10:23:59;;;;;;;4.10;2.75;;;22.00;67.20;;;;;;4995605;28;20490;-68
2023/06/05 10:26:53;;;;;;;4.05;2.70;;;22.10;66.40;;;;;;4995708;28;20329;-68
2023/06/05 10:29:53;;;;;;;3.25;2.70;;;22.10;65.70;;;;;;4995249;28;20356;-68
2023/06/05 10:32:28;;;;;;;3.47;2.58;;;22.10;65.90;;;;;;4995808;28;20030;-68
2023/06/05 10:35:12;;;;;;;4.13;2.75;;;22.00;65.90;;;;;;4995477;28;20038;-68
2023/06/05 10:37:54;;;;;;;3.72;2.70;;;22.10;65.90;;;;;;4995451;28;20093;-68
2023/06/05 10:40:21;;;;;;;3.22;2.47;;;22.30;65.60;;;;;;4995621;28;20084;-68
2023/06/05 10:42:47;;;;;;;5.00;3.00;;;22.30;65.50;;;;;;4995074;28;20097;-68
2023/06/05 10:45:28;;;;;;;4.18;2.78;;;22.40;65.00;;;;;;4995480;28;20102;-67
2023/06/05 10:47:54;;;;;;;3.97;3.00;;;22.40;64.70;;;;;;4995418;28;20077;-67
2023/06/05 10:50:21;;;;;;;4.82;3.00;;;22.40;64.90;;;;;;4995582;28;20498;-68
2023/06/05 10:52:52;;;;;;;4.13;2.90;;;22.40;64.70;;;;;;4995242;28;20034;-69
2023/06/05 10:55:20;;;;;;;4.22;2.78;;;22.40;64.70;;;;;;4995356;28;20085;-69
2023/06/05 10:58:00;;;;;;;4.22;3.00;;;22.50;64.60;;;;;;4995075;28;20042;-69
2023/06/05 11:00:30;;;;;;;4.03;2.90;;;22.60;64.50;;;;;;4995246;28;20041;-69
2023/06/05 11:02:57;;;;;;;4.95;3.00;;;22.70;64.10;;;;;;4995350;28;20052;-68
2023/06/05 11:05:23;;;;;;;5.57;3.10;;;22.90;64.10;;;;;;4995090;28;20057;-69
2023/06/05 11:08:15;;;;;;;3.97;3.05;;;23.00;63.70;;;;;;4995256;28;20527;-69
2023/06/05 11:11:09;;;;;;;4.63;2.88;;;23.10;63.50;;;;;;4995192;28;20042;-69
2023/06/05 11:13:54;;;;;;;;;;;23.10;63.10;;;;;;4996768;28;20050;-69
2023/06/05 11:16:31;;;;;;;3.75;2.92;;;23.20;62.30;;;;;;4999315;28;19905;-69
2023/06/05 11:19:22;;;;;;;4.95;2.50;;;23.20;61.70;;;;;;4999184;28;20045;-69
2023/06/05 11:22:11;;;;;;;3.00;2.10;;;23.30;61.50;;;;;;5001135;28;20034;-69
2023/06/05 11:24:38;;;;;;;2.33;1.90;;;23.30;61.80;;;;;;4998880;28;20054;-69
2023/06/05 11:27:05;;;;;;;2.72;2.30;;;23.30;61.50;;;;;;4998625;28;20034;-69
2023/06/05 11:29:32;;;;;;;3.00;2.40;;;23.40;61.40;;;;;;4998870;28;20360;-69
2023/06/05 11:31:59;;;;;;;4.32;3.00;;;23.50;61.30;;;;;;4998792;28;20440;-69
2023/06/05 11:34:27;;;;;;;3.28;2.33;;;23.50;61.10;;;;;;4998706;28;20041;-68
2023/06/05 11:36:54;;;;;;;3.08;2.30;;;23.60;60.90;;;;;;4998721;28;20046;-68
2023/06/05 11:39:21;;;;;;;4.30;2.33;;;23.70;61.10;;;;;;4998674;28;20042;-68
2023/06/05 11:41:50;;;;;;;3.10;2.45;;;23.80;60.50;;;;;;4998244;28;20084;-68
2023/06/05 11:44:30;;;;;;;3.92;2.80;;;23.80;60.50;;;;;;4998723;28;20037;-68
2023/06/05 11:46:56;;;;;;;3.97;2.80;;;23.80;59.80;;;;;;4998601;28;20033;-68
2023/06/05 11:49:26;;;;;;;3.35;2.35;;;23.80;59.70;;;;;;4998597;28;20026;-68
2023/06/05 11:51:53;;;;;;;4.57;2.53;;;23.80;60.00;;;;;;4998509;28;20101;-69
2023/06/05 11:54:30;;;;;;;2.35;2.05;;;23.90;59.60;;;;;;4998418;28;20570;-68
2023/06/05 11:56:58;;;;;;;3.42;2.30;;;23.90;59.60;;;;;;5001192;28;20034;-68
2023/06/05 11:59:24;;;;;;;7.45;2.08;;;24.00;59.30;;;;;;5000090;28;20494;-69
2023/06/05 12:01:53;;;;;;;3.10;2.30;;;24.10;59.10;;;;;;4998197;28;20474;-68
2023/06/05 12:04:20;;;;;;;3.38;2.50;;;24.10;58.70;;;;;;4997956;28;20062;-68
2023/06/05 12:06:47;;;;;;;3.75;2.60;;;24.10;58.50;;;;;;4998075;28;20027;-65
2023/06/05 12:09:15;;;;;;;4.30;2.20;;;24.20;58.50;;;;;;4997349;28;20034;-65
2023/06/05 12:11:44;;;;;;;3.60;2.35;;;24.20;58.40;;;;;;4998336;28;20039;-68
2023/06/05 12:14:12;;;;;;;5.43;2.45;;;24.20;57.80;;;;;;4997936;28;20037;-69
2023/06/05 12:16:40;;;;;;;3.60;2.30;;;24.20;57.90;;;;;;4998048;28;20444;-68
2023/06/05 12:19:18;;;;;;;2.72;2.22;;;24.20;57.80;;;;;;4997873;28;20456;-68
2023/06/05 12:21:46;;;;;;;3.15;2.42;;;24.20;57.70;;;;;;4997877;28;20036;-68
2023/06/05 12:24:12;;;;;;;3.10;2.35;;;24.30;58.20;;;;;;4997153;28;20068;-68
2023/06/05 12:26:59;;;;;;;3.42;2.40;;;24.30;58.10;;;;;;4997787;28;20026;-69
2023/06/05 12:29:29;;;;;;;6.10;2.20;;;24.30;57.80;;;;;;4997799;28;20022;-69
2023/06/05 12:31:57;;;;;;;2.63;2.20;;;24.30;57.80;;;;;;4997614;28;20041;-68
2023/06/05 12:34:56;;;;;;;3.92;2.17;;;24.30;58.00;;;;;;4997815;28;20027;-68
2023/06/05 12:37:31;;;;;;;3.20;2.40;;;24.30;57.90;;;;;;5015354;28;20041;-68
2023/06/05 12:40:05;;;;;;;2.95;2.20;;;24.30;58.20;;;;;;5015069;28;20097;-68
2023/06/05 12:42:37;;;;;;;2.25;2.05;;;24.30;57.70;;;;;;5015338;28;20121;-68
2023/06/05 12:45:04;;;;;;;2.85;2.25;;;24.30;57.90;;;;;;5015340;28;20056;-68
2023/06/05 12:47:30;;;;;;;2.92;2.25;;;24.20;57.70;;;;;;5015171;28;20387;-68
2023/06/05 12:49:58;;;;;;;2.70;2.10;;;24.20;57.70;;;;;;5015161;28;20122;-68
2023/06/05 12:52:27;;;;;;;2.92;1.90;;;24.20;57.70;;;;;;5014798;28;20372;-69
2023/06/05 12:54:54;;;;;;;3.75;2.42;;;24.10;57.90;;;;;;5015085;28;20030;-68
2023/06/05 12:57:20;;;;;;;4.47;2.28;;;24.20;57.70;;;;;;5015019;28;20033;-68